Time;durP1;ratioP1;P1;durP2;ratioP2;P2;SDS_P1;SDS_P2;PMS_P1;PMS_P2;Temp;Humidity;BMP_temperature;BMP_pressure;BME280_temperature;BME280_humidity;BME280_pressure;Samples;Min_cycle;Max_cycle;Signal;HPM_P1;HPM_P2
2022/04/29 00:01:09;;;;;;;;;;;;;;;8.26;68.76;100640.03;4882585;29;19947;-66
2022/04/29 00:03:37;;;;;;;;;;;;;;;8.26;69.24;100639.13;4882826;29;19931;-66
2022/04/29 00:06:06;;;;;;;;;;;;;;;8.17;68.90;100636.38;4865851;29;19923;-66
2022/04/29 00:08:36;;;;;;;;;;;;;;;7.98;69.19;100633.41;4882438;29;19972;-66
2022/04/29 00:11:06;;;;;;;;;;;;;;;7.98;69.59;100633.41;4882170;29;19931;-66
2022/04/29 00:13:35;;;;;;;;;;;;;;;7.96;68.91;100640.13;4882680;29;20385;-66
2022/04/29 00:16:06;;;;;;;;;;;;;;;7.93;69.21;100640.06;4882420;29;20339;-65
2022/04/29 00:18:35;;;;;;;;;;;;;;;7.84;69.89;100634.75;4882300;29;19924;-65
2022/04/29 00:21:04;;;;;;;;;;;;;;;7.76;69.80;100636.22;4882208;29;19988;-66
2022/04/29 00:23:33;;;;;;;;;;;;;;;7.74;70.03;100632.78;4882124;29;20454;-66
2022/04/29 00:26:02;;;;;;;;;;;;;;;7.69;70.12;100631.81;4882276;29;19924;-66
2022/04/29 00:28:31;;;;;;;;;;;;;;;7.68;69.84;100631.78;4882117;29;19932;-65
2022/04/29 00:31:00;;;;;;;;;;;;;;;7.71;70.70;100632.69;4882390;29;20375;-65
2022/04/29 00:33:30;;;;;;;;;;;;;;;7.70;69.93;100627.59;4882285;29;19924;-66
2022/04/29 00:35:59;;;;;;;;;;;;;;;7.67;70.37;100630.91;4881235;29;19927;-65
2022/04/29 00:38:27;;;;;;;;;;;;;;;7.72;70.43;100631.88;4882202;29;20483;-65
2022/04/29 00:40:56;;;;;;;;;;;;;;;7.70;71.13;100630.97;4882118;29;20294;-65
2022/04/29 00:43:25;;;;;;;;;;;;;;;7.62;70.09;100632.47;4865550;29;19931;-66
2022/04/29 00:45:53;;;;;;;;;;;;;;;7.57;70.66;100634.03;4881632;29;19930;-65
2022/04/29 00:48:22;;;;;;;;;;;;;;;7.53;70.76;100639.84;4881757;29;19924;-65
2022/04/29 00:50:54;;;;;;;;;;;;;;;7.56;70.95;100631.44;4881738;29;19955;-65
2022/04/29 00:53:23;;;;;;;;;;;;;;;7.68;70.81;100639.41;4881708;29;19924;-65
2022/04/29 00:55:54;;;;;;;;;;;;;;;7.85;70.78;100635.59;4865160;29;19928;-66
2022/04/29 00:58:31;;;;;;;;;;;;;;;7.88;70.45;100635.66;4896065;29;19924;-65
2022/04/29 01:01:01;;;;;;;;;;;;;;;7.89;70.54;100633.16;4881869;29;20267;-65
2022/04/29 01:03:30;;;;;;;;;;;;;;;7.93;69.99;100623.94;4881547;29;20263;-66
2022/04/29 01:06:00;;;;;;;;;;;;;;;7.87;70.03;100624.63;4881617;29;19923;-65
2022/04/29 01:08:28;;;;;;;;;;;;;;;7.86;69.25;100622.94;4881840;29;19930;-66
2022/04/29 01:10:58;;;;;;;;;;;;;;;7.86;69.25;100624.59;4881120;29;19955;-66
2022/04/29 01:13:27;;;;;;;;;;;;;;;7.84;69.76;100627.13;4864858;29;19924;-66
2022/04/29 01:15:57;;;;;;;;;;;;;;;7.70;70.12;100614.88;4881467;29;19930;-66
2022/04/29 01:18:28;;;;;;;;;;;;;;;7.59;70.18;100626.44;4864653;29;20458;-66
2022/04/29 01:21:05;;;;;;;;;;;;;;;7.49;70.85;100625.31;4895740;29;19924;-65
2022/04/29 01:23:35;;;;;;;;;;;;;;;7.46;71.06;100630.34;4881147;29;19931;-65
2022/04/29 01:26:05;;;;;;;;;;;;;;;7.40;71.05;100625.97;4881341;29;19924;-66
2022/04/29 01:28:36;;;;;;;;;;;;;;;7.40;70.54;100620.00;4864648;29;20393;-66
2022/04/29 01:31:06;;;;;;;;;;;;;;;7.37;70.68;100630.06;4895527;29;19924;-65
2022/04/29 01:33:35;;;;;;;;;;;;;;;7.36;71.15;100620.75;4880987;29;20011;-66
2022/04/29 01:36:06;;;;;;;;;;;;;;;7.43;71.03;100620.97;4864878;29;19927;-65
2022/04/29 01:38:37;;;;;;;;;;;;;;;7.46;71.93;100620.19;4880808;29;19959;-65
2022/04/29 01:41:07;;;;;;;;;;;;;;;7.46;70.87;100620.19;4880870;29;19963;-66
2022/04/29 01:43:39;;;;;;;;;;;;;;;7.46;71.66;100620.19;4864309;29;19927;-66
2022/04/29 01:46:10;;;;;;;;;;;;;;;7.51;71.51;100621.13;4895143;29;20348;-66
2022/04/29 01:48:45;;;;;;;;;;;;;;;7.64;71.66;100615.56;4880670;29;19972;-65
2022/04/29 01:51:18;;;;;;;;;;;;;;;7.74;71.57;100617.53;4880719;29;19924;-65
2022/04/29 01:53:53;;;;;;;;;;;;;;;7.80;70.65;100616.81;4895031;29;19931;-66
2022/04/29 01:56:32;;;;;;;;;;;;;;;7.74;70.27;100617.53;4894990;29;19924;-66
2022/04/29 01:59:06;;;;;;;;;;;;;;;7.73;70.04;100608.19;4895014;29;19924;-65
2022/04/29 02:01:47;;;;;;;;;;;;;;;7.65;70.40;100607.16;4864018;29;20014;-65
2022/04/29 02:04:16;;;;;;;;;;;;;;;7.66;70.37;100603.78;4880495;29;19930;-65
2022/04/29 02:06:45;;;;;;;;;;;;;;;7.65;70.72;100612.22;4880487;29;19928;-66
2022/04/29 02:09:15;;;;;;;;;;;;;;;7.68;70.86;100607.19;4863722;29;19924;-66
2022/04/29 02:12:03;;;;;;;;;;;;;;;7.62;70.37;100601.97;4891695;29;19946;-66
2022/04/29 02:14:43;;;;;;;;;;;;;;;7.48;70.13;100603.31;4861865;29;19924;-66
2022/04/29 02:17:14;;;;;;;;;;;;;;;7.29;70.30;100601.09;4860975;29;20058;-65
2022/04/29 02:19:42;;;;;;;;;;;;;;;7.21;70.93;100605.09;4860518;29;20453;-65
2022/04/29 02:22:12;;;;;;;;;;;;;;;7.15;70.95;100607.47;4861740;29;19928;-65
2022/04/29 02:24:43;;;;;;;;;;;;;;;7.20;71.27;100605.91;4891485;29;19928;-66
2022/04/29 02:27:12;;;;;;;;;;;;;;;7.25;71.18;100604.34;4861747;29;19928;-65
2022/04/29 02:29:41;;;;;;;;;;;;;;;7.23;71.57;100608.53;4860738;29;20023;-66
2022/04/29 02:32:14;;;;;;;;;;;;;;;7.21;71.72;100602.56;4861718;29;20018;-66
2022/04/29 02:34:43;;;;;;;;;;;;;;;7.22;71.03;100600.03;4861578;29;19924;-65
2022/04/29 02:37:13;;;;;;;;;;;;;;;7.25;71.79;100609.44;4861819;29;19924;-65
2022/04/29 02:39:46;;;;;;;;;;;;;;;7.25;71.08;100601.81;4861487;29;20014;-66
2022/04/29 02:42:15;;;;;;;;;;;;;;;7.33;71.19;100602.88;4860445;29;19924;-66
2022/04/29 02:44:45;;;;;;;;;;;;;;;7.32;71.33;100601.16;4860726;29;19924;-65
2022/04/29 02:47:14;;;;;;;;;;;;;;;7.30;71.23;100602.81;4860660;29;20026;-66
2022/04/29 02:49:43;;;;;;;;;;;;;;;7.24;71.46;100602.66;4861335;29;19976;-65
2022/04/29 02:52:13;;;;;;;;;;;;;;;7.22;71.38;100599.22;4861453;29;19924;-66
2022/04/29 02:54:42;;;;;;;;;;;;;;;7.27;71.34;100597.66;4861427;29;20006;-65
2022/04/29 02:57:36;;;;;;;;;;;;;;;7.28;71.58;100594.28;4843328;29;20290;-65
2022/04/29 03:00:05;;;;;;;;;;;;;;;7.31;71.42;100597.78;4863871;29;20014;-65
2022/04/29 03:02:34;;;;;;;;;;;;;;;7.20;71.06;100605.91;4865099;29;19963;-65
2022/04/29 03:05:05;;;;;;;;;;;;;;;7.15;71.21;100602.41;4863863;29;19946;-65
2022/04/29 03:07:34;;;;;;;;;;;;;;;7.07;71.42;100606.41;4865122;29;20010;-65
2022/04/29 03:10:06;;;;;;;;;;;;;;;7.05;71.38;100595.34;4865159;29;20023;-65
2022/04/29 03:12:41;;;;;;;;;;;;;;;7.10;71.89;100598.88;4894663;29;19924;-65
2022/04/29 03:15:20;;;;;;;;;;;;;;;7.19;71.74;100604.19;4864908;29;20290;-65
2022/04/29 03:20:34;;;;;;;;;;;;;;;7.28;70.91;100605.31;4864762;29;20014;-65
2022/04/29 03:23:03;;;;;;;;;;;;;;;7.27;70.54;100605.28;4865196;29;19974;-65
2022/04/29 03:25:32;;;;;;;;;;;;;;;7.22;71.01;100604.28;4863581;29;20382;-65
2022/04/29 03:28:03;;;;;;;;;;;;;;;7.24;70.81;100608.59;4863461;29;19980;-65
2022/04/29 03:30:32;;;;;;;;;;;;;;;7.20;70.69;100605.91;4864792;29;20310;-65
2022/04/29 03:33:01;;;;;;;;;;;;;;;7.15;70.77;100610.84;4863421;29;19924;-65
2022/04/29 03:35:41;;;;;;;;;;;;;;;7.18;71.37;100612.63;4864520;29;19924;-65
2022/04/29 03:38:14;;;;;;;;;;;;;;;7.12;71.53;100613.31;4894328;29;19931;-65
2022/04/29 03:40:43;;;;;;;;;;;;;;;7.06;71.62;100613.13;4863045;29;19928;-65
2022/04/29 03:43:15;;;;;;;;;;;;;;;7.05;71.60;100615.66;4894591;29;19973;-65
2022/04/29 03:45:45;;;;;;;;;;;;;;;7.12;71.35;100612.47;4863222;29;19923;-66
2022/04/29 03:48:22;;;;;;;;;;;;;;;7.19;71.61;100616.88;4894223;29;19924;-65
2022/04/29 03:51:06;;;;;;;;;;;;;;;7.19;71.07;100614.34;4863353;29;19924;-66
2022/04/29 03:53:35;;;;;;;;;;;;;;;7.23;70.85;100618.69;4862981;29;19924;-66
2022/04/29 03:56:06;;;;;;;;;;;;;;;7.18;71.33;100617.69;4863039;29;19940;-66
2022/04/29 03:58:37;;;;;;;;;;;;;;;7.13;71.50;100616.69;4863048;29;19924;-65
2022/04/29 04:01:05;;;;;;;;;;;;;;;7.13;70.94;100614.16;4863148;29;19932;-65
2022/04/29 04:03:57;;;;;;;;;;;;;;;7.19;71.49;100619.44;4864638;29;19930;-65
2022/04/29 04:09:07;;;;;;;;;;;;;;;7.26;71.33;100621.31;4893597;29;19977;-65
2022/04/29 04:11:37;;;;;;;;;;;;;;;7.30;70.52;100623.97;4870010;29;19947;-65
2022/04/29 04:14:10;;;;;;;;;;;;;;;7.41;70.94;100624.28;4865846;29;19923;-66
2022/04/29 04:16:43;;;;;;;;;;;;;;;7.51;70.55;100626.22;4896753;29;20378;-65
2022/04/29 04:19:13;;;;;;;;;;;;;;;7.59;70.77;100624.75;4896713;29;19924;-66
2022/04/29 04:21:42;;;;;;;;;;;;;;;7.70;69.97;100625.88;4882101;29;20010;-66
2022/04/29 04:24:11;;;;;;;;;;;;;;;7.75;69.85;100624.31;4865944;29;20030;-65
2022/04/29 04:26:40;;;;;;;;;;;;;;;7.73;69.98;100625.97;4882520;29;19924;-65
2022/04/29 04:29:15;;;;;;;;;;;;;;;7.81;70.41;100621.97;4866144;29;19923;-66
2022/04/29 04:31:47;;;;;;;;;;;;;;;7.91;69.77;100626.47;4896469;29;19924;-66
2022/04/29 04:36:54;;;;;;;;;;;;;;;8.09;69.13;100631.97;4865464;29;19924;-65
2022/04/29 04:39:25;;;;;;;;;;;;;;;8.16;69.31;100634.69;4881928;29;19930;-66
2022/04/29 04:42:03;;;;;;;;;;;;;;;8.21;69.01;100630.53;4896337;29;20006;-66
2022/04/29 04:44:43;;;;;;;;;;;;;;;8.28;68.62;100632.47;4882206;29;19946;-66
2022/04/29 04:47:12;;;;;;;;;;;;;;;8.36;68.41;100636.03;4865641;29;19927;-66
2022/04/29 04:49:52;;;;;;;;;;;;;;;8.43;67.17;100637.88;4881811;29;19955;-66
2022/04/29 04:52:25;;;;;;;;;;;;;;;8.44;67.50;100630.31;4896115;29;19927;-66
2022/04/29 04:54:54;;;;;;;;;;;;;;;8.48;67.51;100638.84;4896264;29;19924;-66
2022/04/29 04:57:27;;;;;;;;;;;;;;;8.57;67.47;100644.16;4896405;29;20010;-66
2022/04/29 04:59:58;;;;;;;;;;;;;;;8.67;66.91;100649.50;4896167;29;20365;-65
2022/04/29 05:02:46;;;;;;;;;;;;;;;8.74;66.50;100650.47;4881727;29;19931;-66
2022/04/29 05:05:26;;;;;;;;;;;;;;;8.84;66.25;100652.41;4881822;29;20329;-66
2022/04/29 05:08:15;;;;;;;;;;;;;;;8.96;66.24;100655.22;4881085;29;20006;-66
2022/04/29 05:10:47;;;;;;;;;;;;;;;9.04;65.89;100651.16;4895947;29;19923;-66
2022/04/29 05:13:15;;;;;;;;;;;;;;;9.02;65.30;100651.94;4895695;29;20021;-66
2022/04/29 05:15:51;;;;;;;;;;;;;;;9.01;65.42;100653.63;4882003;29;20349;-66
2022/04/29 05:18:29;;;;;;;;;;;;;;;8.96;65.64;100647.56;4864938;29;19931;-66
2022/04/29 05:21:10;;;;;;;;;;;;;;;9.05;66.04;100650.31;4880987;29;19924;-66
2022/04/29 05:23:39;;;;;;;;;;;;;;;9.13;64.58;100658.97;4895518;29;19924;-66
2022/04/29 05:26:19;;;;;;;;;;;;;;;9.18;65.83;100652.28;4881163;29;19979;-66
2022/04/29 05:28:58;;;;;;;;;;;;;;;9.29;65.88;100657.59;4881052;29;20472;-66
2022/04/29 05:31:42;;;;;;;;;;;;;;;9.47;64.86;100657.09;4881351;29;19924;-66
2022/04/29 05:34:22;;;;;;;;;;;;;;;9.66;64.78;100659.16;4880966;29;19932;-66
2022/04/29 05:37:02;;;;;;;;;;;;;;;9.83;64.81;100662.88;4881301;29;19951;-67
2022/04/29 05:42:35;;;;;;;;;;;;;;;10.26;63.49;100659.41;4895649;29;19981;-66
2022/04/29 05:45:04;;;;;;;;;;;;;;;10.37;62.88;100661.28;4864099;29;19931;-67
2022/04/29 05:47:34;;;;;;;;;;;;;;;10.49;62.80;100664.03;4880721;29;19984;-66
2022/04/29 05:50:04;;;;;;;;;;;;;;;10.60;62.60;100662.53;4864797;29;19923;-66
2022/04/29 05:52:35;;;;;;;;;;;;;;;10.77;62.03;100655.94;4895083;29;19924;-67
2022/04/29 05:55:05;;;;;;;;;;;;;;;10.96;61.41;100653.66;4881011;29;19930;-67
2022/04/29 05:57:35;;;;;;;;;;;;;;;11.11;61.15;100659.81;4864616;29;19923;-67
2022/04/29 06:00:06;;;;;;;;;;;;;;;11.20;60.52;100666.75;4864211;29;20026;-67
2022/04/29 06:02:47;;;;;;;;;;;;;;;11.31;60.31;100665.16;4880556;29;19924;-67
2022/04/29 06:05:20;;;;;;;;;;;;;;;11.41;59.72;100660.19;4864420;29;20286;-66
2022/04/29 06:07:51;;;;;;;;;;;;;;;11.48;59.58;100670.47;4881079;29;19924;-67
2022/04/29 06:10:39;;;;;;;;;;;;;;;11.63;59.22;100668.97;4879851;29;20389;-67
2022/04/29 06:13:09;;;;;;;;;;;;;;;11.80;59.19;100672.59;4894649;29;19923;-67
2022/04/29 06:15:59;;;;;;;;;;;;;;;11.95;58.94;100665.03;4880235;29;19928;-67
2022/04/29 06:18:40;;;;;;;;;;;;;;;12.10;58.55;100662.63;4880166;29;19930;-67
2022/04/29 06:21:20;;;;;;;;;;;;;;;12.31;58.17;100666.22;4880849;29;19924;-67
2022/04/29 06:23:54;;;;;;;;;;;;;;;12.52;57.66;100661.25;4863694;29;19923;-67
2022/04/29 06:26:22;;;;;;;;;;;;;;;12.64;57.63;100669.03;4863947;29;19924;-67
2022/04/29 06:28:51;;;;;;;;;;;;;;;12.76;57.38;100666.56;4880170;29;19924;-67
2022/04/29 06:31:20;;;;;;;;;;;;;;;12.93;57.48;100670.06;4863469;29;19924;-67
2022/04/29 06:34:12;;;;;;;;;;;;;;;13.11;56.70;100662.50;4880158;29;19924;-67
2022/04/29 06:36:43;;;;;;;;;;;;;;;13.07;55.70;100663.34;4880397;29;20432;-67
2022/04/29 06:39:13;;;;;;;;;;;;;;;13.17;55.82;100659.13;4862979;29;19975;-67
2022/04/29 06:42:02;;;;;;;;;;;;;;;13.41;55.27;100670.31;4879691;29;20416;-66
2022/04/29 06:44:50;;;;;;;;;;;;;;;13.64;54.40;100672.97;4879003;29;20298;-66
2022/04/29 06:47:29;;;;;;;;;;;;;;;13.75;53.96;100675.56;4879950;29;19931;-67
2022/04/29 06:50:11;;;;;;;;;;;;;;;13.78;53.87;100670.41;4880683;29;19927;-67
2022/04/29 06:53:06;;;;;;;;;;;;;;;13.90;53.23;100662.75;4851072;29;20004;-66
2022/04/29 06:55:37;;;;;;;;;;;;;;;13.97;52.99;100667.03;4896075;29;19924;-66
2022/04/29 06:58:08;;;;;;;;;;;;;;;14.09;52.75;100661.91;4881802;29;20269;-66
2022/04/29 07:00:40;;;;;;;;;;;;;;;14.09;52.91;100664.47;4881753;29;19923;-66
2022/04/29 07:03:10;;;;;;;;;;;;;;;14.25;53.34;100662.78;4897500;29;20007;-66
2022/04/29 07:05:42;;;;;;;;;;;;;;;14.41;53.75;100662.81;4881926;29;20349;-67
2022/04/29 07:08:15;;;;;;;;;;;;;;;14.56;53.20;100659.38;4882226;29;20330;-67
2022/04/29 07:10:54;;;;;;;;;;;;;;;14.72;53.51;100659.34;4898640;29;19927;-67
2022/04/29 07:13:45;;;;;;;;;;;;;;;14.80;52.36;100666.19;4898359;29;20390;-67
2022/04/29 07:16:14;;;;;;;;;;;;;;;14.86;52.55;100658.44;4866759;29;19923;-67
2022/04/29 07:18:53;;;;;;;;;;;;;;;14.91;52.07;100662.72;4898679;29;19924;-67
2022/04/29 07:21:24;;;;;;;;;;;;;;;15.04;52.68;100663.56;4881625;29;19924;-67
2022/04/29 07:23:53;;;;;;;;;;;;;;;15.17;52.79;100660.94;4897705;29;20133;-67
2022/04/29 07:26:23;;;;;;;;;;;;;;;15.27;52.35;100656.59;4882040;29;20339;-67
2022/04/29 07:28:52;;;;;;;;;;;;;;;15.33;51.99;100661.75;4880598;29;20014;-67
2022/04/29 07:31:25;;;;;;;;;;;;;;;15.57;52.00;100651.38;4893512;29;19927;-66
2022/04/29 07:34:05;;;;;;;;;;;;;;;15.66;51.62;100651.31;4897218;29;19924;-67
2022/04/29 07:42:15;;;;;;;;;;;;;;;16.02;50.11;100640.78;4881929;29;19927;-67
2022/04/29 07:44:43;;;;;;;;;;;;;;;16.14;50.33;100644.97;4883008;29;19923;-66
2022/04/29 07:47:17;;;;;;;;;;;;;;;16.46;50.05;100647.28;4884967;29;19930;-68
2022/04/29 07:50:11;;;;;;;;;;;;;;;16.70;49.37;100647.06;4900612;29;19973;-68
2022/04/29 07:52:43;;;;;;;;;;;;;;;16.72;48.48;100646.16;4901810;29;20421;-67
2022/04/29 07:55:11;;;;;;;;;;;;;;;16.79;48.00;100640.97;4884938;29;19958;-67
2022/04/29 07:57:42;;;;;;;;;;;;;;;16.84;47.62;100645.22;4901719;29;19924;-68
2022/04/29 08:00:16;;;;;;;;;;;;;;;16.92;47.18;100640.81;4884848;29;20293;-66
2022/04/29 08:02:45;;;;;;;;;;;;;;;17.01;47.21;100647.59;4899622;29;19930;-66
2022/04/29 08:05:20;;;;;;;;;;;;;;;17.19;46.50;100632.75;4874391;29;20022;-67
2022/04/29 08:07:54;;;;;;;;;;;;;;;17.44;45.74;100628.97;4884831;29;20290;-67
2022/04/29 08:10:23;;;;;;;;;;;;;;;17.46;44.99;100633.28;4884007;29;19923;-68
2022/04/29 08:12:52;;;;;;;;;;;;;;;17.52;44.70;100634.06;4899745;29;19927;-67
2022/04/29 08:15:43;;;;;;;;;;;;;;;17.71;43.56;100624.31;4861565;29;20271;-67
2022/04/29 08:18:32;;;;;;;;;;;;;;;17.93;42.40;100621.41;4884368;29;20346;-67
2022/04/29 08:21:00;;;;;;;;;;;;;;;18.05;40.31;100622.94;4882380;29;19924;-67
2022/04/29 08:23:33;;;;;;;;;;;;;;;18.28;39.58;100625.16;4884103;29;19923;-68
2022/04/29 08:26:02;;;;;;;;;;;;;;;18.43;38.31;100617.13;4899911;29;20286;-67
2022/04/29 08:28:31;;;;;;;;;;;;;;;18.42;36.41;100612.84;4900937;29;19923;-67
2022/04/29 08:31:00;;;;;;;;;;;;;;;18.35;36.22;100614.69;4899860;29;19923;-68
2022/04/29 08:33:48;;;;;;;;;;;;;;;18.41;36.85;100609.41;4867492;29;20026;-67
2022/04/29 08:36:19;;;;;;;;;;;;;;;18.46;36.92;100620.56;4892699;29;20378;-68
2022/04/29 08:38:51;;;;;;;;;;;;;;;18.49;37.34;100614.47;4870587;29;19931;-68
2022/04/29 08:41:20;;;;;;;;;;;;;;;18.48;35.64;100607.59;4896794;29;19931;-67
2022/04/29 08:43:49;;;;;;;;;;;;;;;18.50;35.55;100605.84;4899767;29;19923;-67
2022/04/29 08:46:33;;;;;;;;;;;;;;;18.50;35.94;100601.50;4900752;29;19924;-67
2022/04/29 08:49:24;;;;;;;;;;;;;;;18.60;36.02;100597.88;4883634;29;19924;-67
2022/04/29 08:51:52;;;;;;;;;;;;;;;18.54;35.93;100592.84;4900422;29;19927;-67
2022/04/29 08:59:47;;;;;;;;;;;;;;;19.45;37.25;100591.00;4881268;29;20026;-68
2022/04/29 09:02:16;;;;;;;;;;;;;;;19.62;37.13;100594.06;4883800;29;19934;-66
2022/04/29 09:04:45;;;;;;;;;;;;;;;19.65;36.34;100586.19;4889659;29;20390;-66
2022/04/29 09:07:14;;;;;;;;;;;;;;;19.79;36.92;100591.91;4881082;29;19923;-66
2022/04/29 09:09:44;;;;;;;;;;;;;;;19.74;35.57;100583.41;4881300;29;19923;-67
2022/04/29 09:12:16;;;;;;;;;;;;;;;19.86;36.78;100577.94;4898843;29;19923;-66
2022/04/29 09:14:47;;;;;;;;;;;;;;;19.89;34.80;100574.41;4882850;29;19979;-66
2022/04/29 09:17:26;;;;;;;;;;;;;;;19.72;33.46;100577.41;4881279;29;20005;-66
2022/04/29 09:19:55;;;;;;;;;;;;;;;19.59;33.54;100572.53;4881777;29;20392;-66
2022/04/29 09:22:30;;;;;;;;;;;;;;;19.74;34.72;100578.22;4893628;29;19924;-66
2022/04/29 09:25:11;;;;;;;;;;;;;;;19.58;33.16;100565.66;4881078;29;20026;-66
2022/04/29 09:27:57;;;;;;;;;;;;;;;19.81;35.09;100566.81;4879867;29;19924;-65
2022/04/29 09:30:42;;;;;;;;;;;;;;;19.80;33.92;100572.88;4881310;29;19923;-65
2022/04/29 09:33:37;;;;;;;;;;;;;;;19.99;33.84;100574.13;4882108;29;19923;-65
2022/04/29 09:36:21;;;;;;;;;;;;;;;20.10;33.21;100573.88;4891046;29;19923;-66
2022/04/29 09:41:34;;;;;;;;;;;;;;;20.30;33.85;100563.03;4880476;29;20421;-66
2022/04/29 09:44:03;;;;;;;;;;;;;;;20.20;32.94;100553.75;4879890;29;19930;-65
2022/04/29 09:46:32;;;;;;;;;;;;;;;20.21;33.26;100558.03;4881000;29;19924;-65
2022/04/29 09:49:04;;;;;;;;;;;;;;;20.03;32.45;100557.59;4881229;29;20367;-66
2022/04/29 09:51:39;;;;;;;;;;;;;;;19.94;31.97;100554.41;4880945;29;20362;-65
2022/04/29 09:54:16;;;;;;;;;;;;;;;19.86;32.15;100546.84;4896417;29;20338;-66
2022/04/29 09:56:47;;;;;;;;;;;;;;;19.87;33.58;100547.66;4899106;29;19927;-67
2022/04/29 09:59:16;;;;;;;;;;;;;;;19.90;32.60;100542.41;4893024;29;19930;-65
2022/04/29 10:01:49;;;;;;;;;;;;;;;20.05;32.35;100542.88;4894331;29;19923;-66
2022/04/29 10:04:22;;;;;;;;;;;;;;;20.10;32.05;100535.00;4887642;29;19927;-66
2022/04/29 10:06:52;;;;;;;;;;;;;;;20.37;32.68;100528.25;4899313;29;19971;-66
2022/04/29 10:09:21;;;;;;;;;;;;;;;20.70;35.04;100537.72;4898529;29;19923;-66
2022/04/29 10:11:54;;;;;;;;;;;;;;;20.60;33.04;100531.06;4898949;29;19977;-65
2022/04/29 10:14:24;;;;;;;;;;;;;;;20.40;31.30;100528.16;4898697;29;19923;-65
2022/04/29 10:22:44;;;;;;;;;;;;;;;20.23;31.30;100522.59;4879852;29;20010;-66
2022/04/29 10:25:14;;;;;;;;;;;;;;;20.51;32.06;100510.56;4880266;29;19924;-66
2022/04/29 10:27:44;;;;;;;;;;;;;;;20.62;31.58;100513.72;4879491;29;19927;-65
2022/04/29 10:30:12;;;;;;;;;;;;;;;20.74;30.72;100505.56;4880063;29;19951;-65
2022/04/29 10:32:52;;;;;;;;;;;;;;;21.01;32.99;100509.97;4879263;29;19924;-65
2022/04/29 10:35:35;;;;;;;;;;;;;;;21.08;31.97;100508.06;4873031;29;19924;-65
2022/04/29 10:38:12;;;;;;;;;;;;;;;21.02;30.73;100498.66;4862208;29;19946;-65
2022/04/29 10:40:41;;;;;;;;;;;;;;;20.87;30.45;100504.34;4880368;29;19924;-66
2022/04/29 10:43:13;;;;;;;;;;;;;;;20.90;30.40;100499.03;4877519;29;19924;-65
2022/04/29 10:45:53;;;;;;;;;;;;;;;20.93;29.49;100495.50;4880195;29;19978;-66
2022/04/29 10:48:32;;;;;;;;;;;;;;;20.88;29.81;100490.44;4879213;29;20014;-64
2022/04/29 10:51:12;;;;;;;;;;;;;;;20.73;30.05;100490.91;4879647;29;19946;-66
2022/04/29 10:54:01;;;;;;;;;;;;;;;20.66;29.84;100479.00;4852452;29;20323;-65
2022/04/29 10:56:40;;;;;;;;;;;;;;;20.47;29.64;100488.19;4879930;29;19927;-65
2022/04/29 10:59:21;;;;;;;;;;;;;;;20.35;29.69;100483.34;4871364;29;19923;-66
2022/04/29 11:01:51;;;;;;;;;;;;;;;20.66;30.25;100473.81;4872558;29;19924;-66
2022/04/29 11:04:32;;;;;;;;;;;;;;;20.98;32.04;100476.31;4879806;29;19930;-66
2022/04/29 11:07:01;;;;;;;;;;;;;;;21.04;30.38;100480.47;4874202;29;20396;-65
2022/04/29 11:09:30;;;;;;;;;;;;;;;20.93;30.61;100473.00;4880145;29;19956;-65
2022/04/29 11:12:00;;;;;;;;;;;;;;;21.03;30.52;100468.38;4879036;29;20354;-66
2022/04/29 11:15:05;;;;;;;;;;;;;;;21.20;29.91;100474.78;4887638;29;19924;-65
2022/04/29 11:18:27;;;;;;;;;;;;;;;21.14;28.73;100456.78;4876304;29;19931;-64
2022/04/29 11:20:57;;;;;;;;;;;;;;;20.97;28.26;100459.00;4883412;29;19923;-65
2022/04/29 11:26:06;;;;;;;;;;;;;;;21.06;29.42;100458.78;4882442;29;20036;-65
2022/04/29 11:28:42;;;;;;;;;;;;;;;21.35;29.10;100450.06;4883131;29;19923;-66
2022/04/29 11:31:15;;;;;;;;;;;;;;;21.62;28.60;100448.31;4883479;29;19924;-65
2022/04/29 11:33:45;;;;;;;;;;;;;;;21.72;28.55;100454.88;4884057;29;20320;-66
2022/04/29 11:36:14;;;;;;;;;;;;;;;21.76;28.37;100443.50;4883000;29;19923;-66
2022/04/29 11:38:45;;;;;;;;;;;;;;;21.70;28.35;100446.28;4883029;29;19963;-65
2022/04/29 11:41:17;;;;;;;;;;;;;;;21.42;27.31;100438.59;4881681;29;19971;-66
2022/04/29 11:43:47;;;;;;;;;;;;;;;21.36;28.29;100434.44;4883134;29;19930;-66
2022/04/29 11:46:17;;;;;;;;;;;;;;;21.42;28.93;100424.75;4882814;29;19988;-65
2022/04/29 11:48:51;;;;;;;;;;;;;;;21.21;27.24;100427.13;4883163;29;19931;-66
2022/04/29 11:51:20;;;;;;;;;;;;;;;21.21;27.26;100424.53;4882821;29;19924;-66
2022/04/29 11:53:56;;;;;;;;;;;;;;;21.27;27.15;100424.34;4883055;29;19940;-66
2022/04/29 11:56:36;;;;;;;;;;;;;;;21.38;27.69;100423.16;4883162;29;20022;-64
2022/04/29 11:59:06;;;;;;;;;;;;;;;21.40;27.80;100405.75;4883114;29;19924;-66
2022/04/29 12:01:40;;;;;;;;;;;;;;;21.45;28.19;100406.47;4881738;29;19924;-65
2022/04/29 12:04:13;;;;;;;;;;;;;;;21.39;27.52;100404.91;4882226;29;20010;-65
2022/04/29 12:06:59;;;;;;;;;;;;;;;21.53;27.05;100401.84;4882213;29;19924;-65
2022/04/29 12:09:33;;;;;;;;;;;;;;;21.38;26.45;100402.38;4882531;29;19924;-65
2022/04/29 12:12:01;;;;;;;;;;;;;;;21.36;26.33;100395.47;4882592;29;19927;-65
2022/04/29 12:14:36;;;;;;;;;;;;;;;21.60;27.47;100390.34;4881705;29;19923;-64
2022/04/29 12:17:06;;;;;;;;;;;;;;;21.55;27.20;100387.03;4870277;29;19924;-65
2022/04/29 12:19:36;;;;;;;;;;;;;;;21.42;26.74;100393.56;4863630;29;19928;-64
2022/04/29 12:22:05;;;;;;;;;;;;;;;21.75;27.03;100382.88;4864210;29;19976;-66
2022/04/29 12:24:43;;;;;;;;;;;;;;;21.98;27.35;100387.25;4863543;29;19924;-66
2022/04/29 12:27:12;;;;;;;;;;;;;;;22.21;27.04;100379.50;4863666;29;19951;-65
2022/04/29 12:34:48;;;;;;;;;;;;;;;22.49;27.82;100377.53;4863502;29;19924;-65
2022/04/29 12:35:33;;;;;;;;;;;;;;;22.05;26.48;100365.38;4861737;29;19924;-65
2022/04/29 12:38:08;;;;;;;;;;;;;;;22.22;26.75;100362.13;4863591;29;19924;-65
2022/04/29 12:40:45;;;;;;;;;;;;;;;21.94;25.61;100352.75;4863671;29;19933;-64
2022/04/29 12:43:14;;;;;;;;;;;;;;;21.53;25.84;100355.06;4877895;29;19924;-64
2022/04/29 12:45:43;;;;;;;;;;;;;;;21.33;27.02;100338.41;4880953;29;19923;-64
2022/04/29 12:48:28;;;;;;;;;;;;;;;21.59;29.08;100344.47;4881855;29;19924;-65
2022/04/29 12:50:57;;;;;;;;;;;;;;;21.84;28.73;100353.09;4881733;29;20015;-65
2022/04/29 12:53:30;;;;;;;;;;;;;;;21.91;27.36;100346.78;4882053;29;20388;-64
2022/04/29 12:55:59;;;;;;;;;;;;;;;21.90;26.73;100345.13;4881755;29;19924;-65
2022/04/29 12:58:30;;;;;;;;;;;;;;;21.61;26.65;100340.06;4882005;29;19995;-64
2022/04/29 13:01:06;;;;;;;;;;;;;;;21.42;26.90;100341.63;4881625;29;19954;-64
2022/04/29 13:03:48;;;;;;;;;;;;;;;21.21;26.63;100341.44;4877070;29;19967;-64
2022/04/29 13:06:33;;;;;;;;;;;;;;;20.99;27.12;100331.78;4861766;29;20034;-64
2022/04/29 13:09:02;;;;;;;;;;;;;;;20.98;27.19;100336.13;4870944;29;19924;-65
2022/04/29 13:11:32;;;;;;;;;;;;;;;21.14;26.93;100339.13;4870079;29;19975;-65
2022/04/29 13:14:11;;;;;;;;;;;;;;;21.16;26.65;100324.34;4862746;29;19924;-64
2022/04/29 13:16:40;;;;;;;;;;;;;;;21.14;25.82;100319.16;4862882;29;19934;-65
2022/04/29 13:19:12;;;;;;;;;;;;;;;21.05;25.48;100321.22;4862915;29;19928;-65
2022/04/29 13:21:41;;;;;;;;;;;;;;;21.04;25.81;100309.13;4875434;29;19934;-65
2022/04/29 13:24:10;;;;;;;;;;;;;;;21.00;25.83;100313.56;4863950;29;20263;-65
2022/04/29 13:26:48;;;;;;;;;;;;;;;21.10;26.02;100302.00;4879735;29;19923;-65
2022/04/29 13:29:16;;;;;;;;;;;;;;;21.25;25.72;100304.09;4880981;29;19924;-66
2022/04/29 13:31:45;;;;;;;;;;;;;;;21.32;25.47;100302.13;4881449;29;19924;-65
2022/04/29 13:34:15;;;;;;;;;;;;;;;21.38;25.64;100294.09;4880808;29;19924;-65
2022/04/29 13:36:45;;;;;;;;;;;;;;;21.42;26.20;100300.91;4880056;29;19989;-65
2022/04/29 13:39:13;;;;;;;;;;;;;;;21.43;26.23;100296.56;4895669;29;19979;-65
2022/04/29 13:41:48;;;;;;;;;;;;;;;21.34;26.26;100292.53;4882930;29;19923;-65
2022/04/29 13:44:17;;;;;;;;;;;;;;;21.35;26.29;100289.88;4899536;29;19995;-65
2022/04/29 13:46:45;;;;;;;;;;;;;;;21.38;26.43;100290.69;4899432;29;19971;-65
2022/04/29 13:49:19;;;;;;;;;;;;;;;21.38;27.17;100285.50;4899839;29;19923;-65